createdAt,value
2018-04-18T00:00:32.126Z,56.43
2018-04-18T00:01:32.072Z,56.53
2018-04-18T00:02:32.101Z,57.12
2018-04-18T00:03:32.065Z,56.64
2018-04-18T00:04:32.090Z,57.9
2018-04-18T00:05:32.087Z,57.82
2018-04-18T00:06:32.067Z,58.46
2018-04-18T00:07:32.075Z,59.68
2018-04-18T00:08:32.081Z,59.75
2018-04-18T00:09:32.088Z,59.83
2018-04-18T00:10:32.084Z,59.12
2018-04-18T00:11:32.087Z,58.64
2018-04-18T00:12:32.081Z,59.55
2018-04-18T00:13:32.106Z,58.8
2018-04-18T00:14:32.107Z,59.17
2018-04-18T00:15:32.064Z,59.31
2018-04-18T00:16:32.071Z,59.68
2018-04-18T00:17:32.091Z,58.98
2018-04-18T00:18:32.060Z,59.1
2018-04-18T00:19:32.193Z,59.38
2018-04-18T00:20:32.066Z,59
2018-04-18T00:21:32.088Z,60.14
2018-04-18T00:22:32.080Z,59.79
2018-04-18T00:23:32.076Z,59.98
2018-04-18T00:24:32.081Z,60.04
2018-04-18T00:25:32.070Z,60.66
2018-04-18T00:26:32.217Z,61.1
2018-04-18T00:27:32.081Z,61.64
2018-04-18T00:28:32.147Z,62.31
2018-04-18T00:29:32.268Z,63.78
2018-04-18T00:30:32.165Z,63.76
2018-04-18T00:31:32.174Z,64.79
2018-04-18T00:32:32.184Z,65.11
2018-04-18T00:33:32.063Z,65.55
2018-04-18T00:34:32.176Z,66.01
2018-04-18T00:35:32.183Z,65.68
2018-04-18T00:36:32.049Z,65.5
2018-04-18T00:37:32.085Z,64.7
2018-04-18T00:38:32.054Z,64.64
2018-04-18T00:39:32.081Z,64.31
2018-04-18T00:40:32.087Z,64.53
2018-04-18T00:41:32.173Z,63.52
2018-04-18T00:42:32.193Z,64.69
2018-04-18T00:43:32.084Z,64.01
2018-04-18T00:44:32.186Z,63.32
2018-04-18T00:45:32.080Z,64.22
2018-04-18T00:46:32.080Z,64.07
2018-04-18T00:47:32.057Z,63.37
2018-04-18T00:48:32.122Z,63.88
2018-04-18T00:49:32.073Z,63.26
2018-04-18T00:50:32.069Z,63.78
2018-04-18T00:51:32.174Z,63.38
2018-04-18T00:52:32.047Z,64.01
2018-04-18T00:53:32.069Z,63.49
2018-04-18T00:54:32.057Z,63.33
2018-04-18T00:55:32.041Z,63.63
2018-04-18T00:56:32.218Z,63.86
2018-04-18T00:57:32.084Z,63.81
2018-04-18T00:58:32.038Z,64.3
2018-04-18T00:59:32.063Z,64.38
2018-04-18T01:00:32.080Z,63.92
2018-04-18T01:01:32.063Z,64.59
2018-04-18T01:02:32.065Z,64.3
2018-04-18T01:03:32.059Z,63.55
2018-04-18T01:04:32.178Z,64.22
2018-04-18T01:05:32.073Z,64.2
2018-04-18T01:06:32.048Z,64.39
2018-04-18T01:07:32.046Z,63.81
2018-04-18T01:08:32.066Z,63.63
2018-04-18T01:09:32.274Z,64.02
2018-04-18T01:10:32.064Z,64.3
2018-04-18T01:11:32.084Z,63.84
2018-04-18T01:12:32.047Z,64.39
2018-04-18T01:13:32.055Z,64.2
2018-04-18T01:14:32.039Z,64.54
2018-04-18T01:15:32.056Z,65.21
2018-04-18T01:16:32.077Z,65.9
2018-04-18T01:17:32.038Z,66.27
2018-04-18T01:18:32.042Z,66.39
2018-04-18T01:19:32.039Z,66.25
2018-04-18T01:20:32.079Z,66.92
2018-04-18T01:21:32.052Z,66.97
2018-04-18T01:22:32.040Z,66.92
2018-04-18T01:23:32.070Z,66.82
2018-04-18T01:24:32.024Z,65.84
2018-04-18T01:25:32.033Z,65.88
2018-04-18T01:26:32.061Z,66.31
2018-04-18T01:27:32.038Z,67.01
2018-04-18T01:28:32.020Z,67.22
2018-04-18T01:29:32.046Z,67.19
2018-04-18T01:30:32.076Z,66.84
2018-04-18T01:31:32.069Z,67.09
2018-04-18T01:32:32.066Z,67.04
2018-04-18T01:33:32.064Z,67.1
2018-04-18T01:34:32.048Z,67.18
2018-04-18T01:35:32.054Z,67.09
2018-04-18T01:36:32.062Z,67.22
2018-04-18T01:37:32.072Z,66.69
2018-04-18T01:38:32.053Z,66.18
2018-04-18T01:39:32.017Z,66.74
2018-04-18T01:40:32.062Z,66.87
2018-04-18T01:41:32.019Z,66.88
2018-04-18T01:42:32.037Z,66.97
2018-04-18T01:43:32.045Z,67.11
2018-04-18T01:44:32.035Z,67.33
2018-04-18T01:45:32.073Z,66.97
2018-04-18T01:46:32.052Z,67.18
2018-04-18T01:47:32.036Z,67.32
2018-04-18T01:48:32.146Z,67.35
2018-04-18T01:49:32.080Z,67.44
2018-04-18T01:50:32.054Z,67.74
2018-04-18T01:51:32.099Z,67.58
2018-04-18T01:52:32.024Z,67.27
2018-04-18T01:53:32.030Z,67
2018-04-18T01:54:32.014Z,67.33
2018-04-18T01:55:32.024Z,67.48
2018-04-18T01:56:32.021Z,67.21
2018-04-18T01:57:32.014Z,67.5
2018-04-18T01:58:32.084Z,67.8
2018-04-18T01:59:32.072Z,67.58
2018-04-18T02:00:32.012Z,67.43
2018-04-18T02:01:32.018Z,67.57
2018-04-18T02:02:32.043Z,67.75
2018-04-18T02:03:32.014Z,67.33
2018-04-18T02:04:32.024Z,68.14
2018-04-18T02:05:32.054Z,68.11
2018-04-18T02:06:32.032Z,68.06
2018-04-18T02:07:32.017Z,67.85
2018-04-18T02:08:31.996Z,67.06
2018-04-18T02:09:32.012Z,67.19
2018-04-18T02:10:32.033Z,68.1
2018-04-18T02:11:32.047Z,67.4
2018-04-18T02:12:32.071Z,68.16
2018-04-18T02:13:32.006Z,68.05
2018-04-18T02:14:32.004Z,68.15
2018-04-18T02:15:32.021Z,68.32
2018-04-18T02:16:32.037Z,68.57
2018-04-18T02:17:32.011Z,68.35
2018-04-18T02:18:32.009Z,67.49
2018-04-18T02:19:32.007Z,67.72
2018-04-18T02:20:32.022Z,67.79
2018-04-18T02:21:32.020Z,67.39
2018-04-18T02:22:32.003Z,67.96
2018-04-18T02:23:32.025Z,68.26
2018-04-18T02:24:32.042Z,68.09
2018-04-18T02:25:32.009Z,68.24
2018-04-18T02:26:32.016Z,68.08
2018-04-18T02:27:31.994Z,68.2
2018-04-18T02:28:31.998Z,67.73
2018-04-18T02:29:31.996Z,66.78
2018-04-18T02:30:32.053Z,66.84
2018-04-18T02:31:32.064Z,67.68
2018-04-18T02:32:32.029Z,68.64
2018-04-18T02:33:32.020Z,68.17
2018-04-18T02:34:32.032Z,68.26
2018-04-18T02:35:32.026Z,68.27
2018-04-18T02:36:32.000Z,68.16
2018-04-18T02:37:32.025Z,68.7
2018-04-18T02:38:32.099Z,68.58
2018-04-18T02:39:31.993Z,68.44
2018-04-18T02:40:32.011Z,67.99
2018-04-18T02:41:32.023Z,68.26
2018-04-18T02:42:32.012Z,68.45
2018-04-18T02:43:32.130Z,68.55
2018-04-18T02:44:32.011Z,68.47
2018-04-18T02:45:31.993Z,68.66
2018-04-18T02:46:32.261Z,68.75
2018-04-18T02:47:32.010Z,68.96
2018-04-18T02:48:31.996Z,68.96
2018-04-18T02:49:31.989Z,68.67
2018-04-18T02:50:32.021Z,67.88
2018-04-18T02:51:32.069Z,68.22
2018-04-18T02:52:32.042Z,67.62
2018-04-18T02:53:31.993Z,67.36
2018-04-18T02:54:31.991Z,68.24
2018-04-18T02:55:32.009Z,68.31
2018-04-18T02:56:32.127Z,67.9
2018-04-18T02:57:32.046Z,67.97
2018-04-18T02:58:31.980Z,67.31
2018-04-18T02:59:31.999Z,67.76
2018-04-18T03:00:32.012Z,67.83
2018-04-18T03:01:32.023Z,67.9
2018-04-18T03:02:32.003Z,68.41
2018-04-18T03:03:32.032Z,68.02
2018-04-18T03:04:32.013Z,67.19
2018-04-18T03:05:31.995Z,67.58
2018-04-18T03:06:32.064Z,68.12
2018-04-18T03:07:32.024Z,68.37
2018-04-18T03:08:32.012Z,67.63
2018-04-18T03:09:31.994Z,67.21
2018-04-18T03:10:32.006Z,67.65
2018-04-18T03:11:32.017Z,67.35
2018-04-18T03:12:31.984Z,67.87
2018-04-18T03:13:32.008Z,68.02
2018-04-18T03:14:31.979Z,67.68
2018-04-18T03:15:31.977Z,68.18
2018-04-18T03:16:32.023Z,68
2018-04-18T03:17:32.209Z,68.2
2018-04-18T03:18:32.053Z,67.65
2018-04-18T03:19:32.018Z,67.34
2018-04-18T03:20:31.992Z,67.86
2018-04-18T03:21:31.990Z,67.1
2018-04-18T03:22:31.999Z,67.9
2018-04-18T03:23:31.997Z,67.86
2018-04-18T03:24:31.989Z,67.16
2018-04-18T03:25:31.998Z,67.6
2018-04-18T03:26:32.196Z,67.18
2018-04-18T03:27:32.012Z,67.85
2018-04-18T03:28:31.992Z,68.23
2018-04-18T03:29:31.969Z,67.2
2018-04-18T03:30:31.984Z,68.2
2018-04-18T03:31:31.984Z,68.02
2018-04-18T03:32:32.020Z,67.63
2018-04-18T03:33:32.021Z,68.14
2018-04-18T03:34:31.993Z,67.59
2018-04-18T03:35:31.972Z,67.1
2018-04-18T03:36:31.963Z,67.66
2018-04-18T03:37:32.011Z,67.5
2018-04-18T03:38:31.991Z,68.19
2018-04-18T03:39:31.972Z,67.74
2018-04-18T03:40:31.956Z,67.7
2018-04-18T03:41:31.957Z,68.12
2018-04-18T03:42:31.993Z,68.38
2018-04-18T03:43:32.154Z,68.3
2018-04-18T03:44:31.976Z,67.55
2018-04-18T03:45:31.985Z,68.11
2018-04-18T03:46:31.973Z,68.39
2018-04-18T03:47:32.179Z,67.87
2018-04-18T03:48:31.995Z,68.2
2018-04-18T03:49:31.988Z,67.89
2018-04-18T03:50:31.977Z,67.99
2018-04-18T03:51:31.983Z,67.98
2018-04-18T03:52:32.023Z,68.31
2018-04-18T03:53:31.969Z,68.59
2018-04-18T03:54:32.311Z,68.56
2018-04-18T03:55:31.949Z,68.12
2018-04-18T03:56:31.984Z,67.83
2018-04-18T03:57:31.992Z,68.35
2018-04-18T03:58:31.967Z,68.61
2018-04-18T03:59:31.983Z,68.2
2018-04-18T04:00:31.957Z,68.11
2018-04-18T04:01:31.950Z,68.11
2018-04-18T04:02:32.237Z,68.63
2018-04-18T04:03:31.961Z,68.54
2018-04-18T04:04:31.972Z,68
2018-04-18T04:05:31.995Z,68.27
2018-04-18T04:06:32.027Z,67.59
2018-04-18T04:07:31.991Z,68.83
2018-04-18T04:08:31.955Z,68.48
2018-04-18T04:09:31.980Z,68.91
2018-04-18T04:10:32.427Z,69.03
2018-04-18T04:11:31.948Z,69.62
2018-04-18T04:12:31.971Z,69.33
2018-04-18T04:13:31.991Z,69.56
2018-04-18T04:14:31.978Z,69.2
2018-04-18T04:15:32.089Z,69.35
2018-04-18T04:16:32.111Z,68.97
2018-04-18T04:17:31.953Z,69.56
2018-04-18T04:18:31.934Z,69.56
2018-04-18T04:19:31.978Z,69.73
2018-04-18T04:20:31.938Z,69.93
2018-04-18T04:21:31.964Z,69.34
2018-04-18T04:22:31.963Z,69.52
2018-04-18T04:23:32.131Z,69.57
2018-04-18T04:24:31.983Z,69.49
2018-04-18T04:25:31.970Z,69.2
2018-04-18T04:26:31.947Z,70.1
2018-04-18T04:27:31.967Z,70.31
2018-04-18T04:28:32.029Z,70.72
2018-04-18T04:29:31.934Z,70.7
2018-04-18T04:30:31.960Z,70.67
2018-04-18T04:31:32.105Z,71.23
2018-04-18T04:32:31.947Z,71.42
2018-04-18T04:33:31.960Z,71.64
2018-04-18T04:34:31.958Z,71.97
2018-04-18T04:35:31.989Z,71.89
2018-04-18T04:36:31.957Z,71.6
2018-04-18T04:37:31.949Z,71.66
2018-04-18T04:38:31.954Z,71.83
2018-04-18T04:39:31.964Z,71.94
2018-04-18T04:40:31.955Z,71.91
2018-04-18T04:41:32.009Z,71.81
2018-04-18T04:42:31.930Z,72
2018-04-18T04:43:31.985Z,71.86
2018-04-18T04:44:32.005Z,72.29
2018-04-18T04:45:31.948Z,71.89
2018-04-18T04:46:31.941Z,72.15
2018-04-18T04:47:31.938Z,72.14
2018-04-18T04:48:31.997Z,71.65
2018-04-18T04:49:31.962Z,71.51
2018-04-18T04:50:31.934Z,71.71
2018-04-18T04:51:31.954Z,71.62
2018-04-18T04:52:31.962Z,70.98
2018-04-18T04:53:31.955Z,71.73
2018-04-18T04:54:32.111Z,71.55
2018-04-18T04:55:31.950Z,70.81
2018-04-18T04:56:31.954Z,71.63
2018-04-18T04:57:31.940Z,71.45
2018-04-18T04:58:31.958Z,71.66
2018-04-18T04:59:31.923Z,71.85
2018-04-18T05:00:31.954Z,72.01
2018-04-18T05:01:31.978Z,71.71
2018-04-18T05:02:31.993Z,72.64
2018-04-18T05:03:31.957Z,72.55
2018-04-18T05:04:31.968Z,72.79
2018-04-18T05:05:31.963Z,73.09
2018-04-18T05:06:31.930Z,72.14
2018-04-18T05:07:31.984Z,72.03
2018-04-18T05:08:31.952Z,72.02
2018-04-18T05:09:31.952Z,71.42
2018-04-18T05:10:31.940Z,72.81
2018-04-18T05:11:31.925Z,72.73
2018-04-18T05:12:31.908Z,71.85
2018-04-18T05:13:31.937Z,71.19
2018-04-18T05:14:32.085Z,70.71
2018-04-18T05:15:31.985Z,72.38
2018-04-18T05:16:31.942Z,72.38
2018-04-18T05:17:31.926Z,72.26
2018-04-18T05:18:32.059Z,71.97
2018-04-18T05:19:32.009Z,71.64
2018-04-18T05:20:31.930Z,71.09
2018-04-18T05:21:31.938Z,70.93
2018-04-18T05:22:31.919Z,71.57
2018-04-18T05:23:31.944Z,71.4
2018-04-18T05:24:31.945Z,70.26
2018-04-18T05:25:32.096Z,71.01
2018-04-18T05:26:32.040Z,70.28
2018-04-18T05:27:32.026Z,69.31
2018-04-18T05:28:31.946Z,70.83
2018-04-18T05:29:31.910Z,70.01
2018-04-18T05:30:31.986Z,70.59
2018-04-18T05:31:31.936Z,70.6
2018-04-18T05:32:31.978Z,69.61
2018-04-18T05:33:32.844Z,69.99
2018-04-18T05:34:31.978Z,70.05
2018-04-18T05:35:31.929Z,69.49
2018-04-18T05:36:31.927Z,69.15
2018-04-18T05:37:31.929Z,69.45
2018-04-18T05:38:31.956Z,69.72
2018-04-18T05:39:31.921Z,69.63
2018-04-18T05:40:31.936Z,69.49
2018-04-18T05:41:31.927Z,69.23
2018-04-18T05:42:31.936Z,69.5
2018-04-18T05:43:31.952Z,69.65
2018-04-18T05:44:31.920Z,70.67
2018-04-18T05:45:31.912Z,71.05
2018-04-18T05:46:31.949Z,71.39
2018-04-18T05:47:31.955Z,71.89
2018-04-18T05:48:31.974Z,71.75
2018-04-18T05:49:32.028Z,71.76
2018-04-18T05:50:31.923Z,71.91
2018-04-18T05:51:32.000Z,72.64
2018-04-18T05:52:31.918Z,72.75
2018-04-18T05:53:32.047Z,73.6
2018-04-18T05:54:31.925Z,73
2018-04-18T05:55:32.003Z,72.13
2018-04-18T05:56:31.926Z,72.19
2018-04-18T05:57:31.940Z,72.13
2018-04-18T05:58:32.063Z,72.52
2018-04-18T05:59:31.970Z,72.19
2018-04-18T06:00:32.046Z,72.31
2018-04-18T06:01:31.934Z,72.1
2018-04-18T06:02:31.977Z,72.48
2018-04-18T06:03:31.964Z,72.75
2018-04-18T06:04:31.981Z,73.09
2018-04-18T06:05:31.924Z,73.02
2018-04-18T06:06:31.931Z,71.98
2018-04-18T06:07:32.105Z,72.35
2018-04-18T06:08:31.990Z,72.43
2018-04-18T06:09:32.055Z,72.39
2018-04-18T06:10:32.005Z,71.77
2018-04-18T06:11:31.905Z,71.68
2018-04-18T06:12:31.950Z,71.54
2018-04-18T06:13:32.022Z,70.76
2018-04-18T06:14:31.889Z,70.91
2018-04-18T06:15:31.881Z,71.36
2018-04-18T06:16:31.897Z,71.28
2018-04-18T06:17:31.896Z,70.88
2018-04-18T06:18:31.937Z,70.63
2018-04-18T06:19:31.917Z,70.63
2018-04-18T06:20:31.887Z,70.54
2018-04-18T06:21:31.921Z,69.73
2018-04-18T06:22:31.894Z,70.13
2018-04-18T06:23:31.907Z,70.34
2018-04-18T06:24:31.971Z,70.66
2018-04-18T06:25:32.219Z,70.23
2018-04-18T06:26:31.900Z,70.2
2018-04-18T06:27:32.148Z,69.72
2018-04-18T06:28:31.998Z,69.71
2018-04-18T06:29:31.950Z,69.92
2018-04-18T06:30:32.080Z,69.96
2018-04-18T06:31:31.939Z,69.83
2018-04-18T06:32:31.946Z,69.4
2018-04-18T06:33:31.978Z,69.3
2018-04-18T06:34:31.915Z,69.39
2018-04-18T06:35:31.889Z,69.56
2018-04-18T06:36:31.896Z,69.42
2018-04-18T06:37:31.879Z,69.06
2018-04-18T06:38:31.921Z,69
2018-04-18T06:39:31.916Z,69.23
2018-04-18T06:40:31.908Z,69.16
2018-04-18T06:41:31.917Z,68.8
2018-04-18T06:42:31.895Z,68.38
2018-04-18T06:43:32.022Z,68.17
2018-04-18T06:44:31.870Z,67.93
2018-04-18T06:45:31.921Z,67.64
2018-04-18T06:46:31.893Z,67.72
2018-04-18T06:47:31.924Z,67.3
2018-04-18T06:48:31.912Z,67.46
2018-04-18T06:49:31.900Z,67.43
2018-04-18T06:50:31.867Z,68.11
2018-04-18T06:51:31.877Z,67.55
2018-04-18T06:52:31.865Z,67.31
2018-04-18T06:53:31.910Z,68.37
2018-04-18T06:54:31.984Z,68.08
2018-04-18T06:55:31.951Z,67.41
2018-04-18T06:56:31.876Z,67.49
2018-04-18T06:57:31.905Z,67.47
2018-04-18T06:58:31.893Z,66.92
2018-04-18T06:59:32.010Z,66.66
2018-04-18T07:00:31.979Z,66.56
2018-04-18T07:01:31.865Z,66.38
2018-04-18T07:02:31.941Z,65.51
2018-04-18T07:03:32.015Z,65.86
2018-04-18T07:04:31.888Z,65.6
2018-04-18T07:05:31.977Z,65.3
2018-04-18T07:06:31.883Z,66.21
2018-04-18T07:07:31.908Z,65.58
2018-04-18T07:08:31.950Z,65.67
2018-04-18T07:09:31.962Z,64.76
2018-04-18T07:10:31.850Z,64.75
2018-04-18T07:11:31.868Z,64.75
2018-04-18T07:12:31.861Z,64.84
2018-04-18T07:13:31.911Z,63.81
2018-04-18T07:14:31.955Z,64.34
2018-04-18T07:15:31.876Z,65.26
2018-04-18T07:16:31.884Z,65.23
2018-04-18T07:17:31.965Z,64.57
2018-04-18T07:18:31.945Z,65.06
2018-04-18T07:19:31.859Z,64.64
2018-04-18T07:20:31.947Z,63.84
2018-04-18T07:21:31.844Z,64.33
2018-04-18T07:22:32.020Z,63.54
2018-04-18T07:23:31.903Z,63.22
2018-04-18T07:24:31.851Z,62.96
2018-04-18T07:25:31.895Z,63.07
2018-04-18T07:26:31.954Z,63.51
2018-04-18T07:27:31.863Z,63.91
2018-04-18T07:28:31.881Z,63.88
2018-04-18T07:29:31.909Z,62.55
2018-04-18T07:30:31.878Z,61.54
2018-04-18T07:31:31.923Z,62.04
2018-04-18T07:32:31.847Z,62.63
2018-04-18T07:33:31.985Z,62.19
2018-04-18T07:34:31.899Z,61.5
2018-04-18T07:35:31.867Z,61.13
2018-04-18T07:36:31.942Z,60.88
2018-04-18T07:37:32.025Z,61.37
2018-04-18T07:38:31.863Z,61.16
2018-04-18T07:39:31.866Z,61.34
2018-04-18T07:40:31.920Z,61.43
2018-04-18T07:41:31.910Z,60.95
2018-04-18T07:42:31.859Z,61.11
2018-04-18T07:43:31.900Z,60.64
2018-04-18T07:44:31.905Z,60.63
2018-04-18T07:45:31.877Z,60.56
2018-04-18T07:46:31.859Z,60.12
2018-04-18T07:47:31.842Z,60.43
2018-04-18T07:48:31.837Z,60.11
2018-04-18T07:49:31.894Z,59.73
2018-04-18T07:50:31.867Z,60.39
2018-04-18T07:51:31.849Z,60.69
2018-04-18T07:52:31.835Z,60.23
2018-04-18T07:53:31.905Z,60.61
2018-04-18T07:54:31.862Z,59.49
2018-04-18T07:55:31.841Z,59.68
2018-04-18T07:56:31.863Z,59.86
2018-04-18T07:57:31.879Z,59.78
2018-04-18T07:58:31.866Z,59.91
2018-04-18T07:59:31.841Z,60.21
2018-04-18T08:00:32.360Z,60.73
2018-04-18T08:01:31.837Z,60.46
2018-04-18T08:02:31.863Z,60.02
2018-04-18T08:03:31.948Z,60.1
2018-04-18T08:04:31.855Z,60.67
2018-04-18T08:05:32.039Z,60.23
2018-04-18T08:06:31.851Z,60.73
2018-04-18T08:07:31.881Z,60.25
2018-04-18T08:08:32.025Z,59.87
2018-04-18T08:09:31.841Z,59.92
2018-04-18T08:10:31.879Z,59.6
2018-04-18T08:11:31.853Z,59.24
2018-04-18T08:12:31.827Z,59.58
2018-04-18T08:13:31.830Z,59.35
2018-04-18T08:14:31.826Z,58.33
2018-04-18T08:15:31.915Z,58.6
2018-04-18T08:16:31.838Z,58.72
2018-04-18T08:17:31.992Z,58.4
2018-04-18T08:18:31.816Z,58.3
2018-04-18T08:19:31.851Z,58.89
2018-04-18T08:20:31.879Z,58.38
2018-04-18T08:21:31.837Z,59.33
2018-04-18T08:22:31.971Z,58.43
2018-04-18T08:23:31.868Z,59.29
2018-04-18T08:24:31.810Z,58.23
2018-04-18T08:25:31.900Z,58.57
2018-04-18T08:26:31.855Z,59.28
2018-04-18T08:27:31.902Z,59.5
2018-04-18T08:28:31.957Z,60.24
2018-04-18T08:29:31.962Z,59.69
2018-04-18T08:30:31.833Z,59.66
2018-04-18T08:31:31.826Z,58.84
2018-04-18T08:32:31.883Z,58.47
2018-04-18T08:33:31.833Z,58.22
2018-04-18T08:34:31.870Z,57.51
2018-04-18T08:35:31.872Z,59.01
2018-04-18T08:36:31.823Z,58.47
2018-04-18T08:37:31.844Z,58.26
2018-04-18T08:38:31.822Z,58.18
2018-04-18T08:39:31.895Z,57.46
2018-04-18T08:40:31.841Z,57.11
2018-04-18T08:41:31.919Z,57.43
2018-04-18T08:42:31.834Z,56.58
2018-04-18T08:43:31.797Z,56.99
2018-04-18T08:44:31.827Z,57.47
2018-04-18T08:45:31.842Z,56.27
2018-04-18T08:46:31.855Z,56.13
2018-04-18T08:47:31.817Z,56.26
2018-04-18T08:48:31.815Z,55.99
2018-04-18T08:49:31.839Z,56.21
2018-04-18T08:50:32.059Z,56.63
2018-04-18T08:51:31.822Z,56.84
2018-04-18T08:52:31.811Z,56.31
2018-04-18T08:53:31.826Z,56.66
2018-04-18T08:54:31.790Z,56.16
2018-04-18T08:55:31.826Z,54.81
2018-04-18T08:56:31.795Z,54.16
2018-04-18T08:57:31.807Z,54.62
2018-04-18T08:58:31.809Z,55.52
2018-04-18T08:59:31.795Z,55.56
2018-04-18T09:00:31.805Z,55.36
2018-04-18T09:01:31.815Z,54.92
2018-04-18T09:02:31.811Z,55.14
2018-04-18T09:03:31.788Z,55.52
2018-04-18T09:04:31.826Z,55.07
2018-04-18T09:05:31.796Z,55
2018-04-18T09:06:31.810Z,55.63
2018-04-18T09:07:31.796Z,54.7
2018-04-18T09:08:31.776Z,55.12
2018-04-18T09:09:31.781Z,55.22
2018-04-18T09:10:32.141Z,54.69
2018-04-18T09:11:31.790Z,54.08
2018-04-18T09:12:31.795Z,53.21
2018-04-18T09:13:31.816Z,53.46
2018-04-18T09:14:32.011Z,52.8
2018-04-18T09:15:31.784Z,53.99
2018-04-18T09:16:31.924Z,53.3
2018-04-18T09:17:31.793Z,52.92
2018-04-18T09:18:31.946Z,52.65
2018-04-18T09:19:31.881Z,52.34
2018-04-18T09:20:31.815Z,52.1
2018-04-18T09:21:32.019Z,51.27
2018-04-18T09:22:31.807Z,51.39
2018-04-18T09:23:31.778Z,52.05
2018-04-18T09:24:31.789Z,51.18
2018-04-18T09:25:31.794Z,51.3
2018-04-18T09:26:31.795Z,51.46
2018-04-18T09:27:31.804Z,51.86
2018-04-18T09:28:31.959Z,51.43
2018-04-18T09:29:31.816Z,51.53
2018-04-18T09:30:31.814Z,50.82
2018-04-18T09:31:31.833Z,51.25
2018-04-18T09:32:31.790Z,50.4
2018-04-18T09:33:31.836Z,49.42
2018-04-18T09:34:31.920Z,50.04
2018-04-18T09:35:31.781Z,49.79
2018-04-18T09:36:31.824Z,50.68
2018-04-18T09:37:31.845Z,51.25
2018-04-18T09:38:31.934Z,50.39
2018-04-18T09:39:31.815Z,50.87
2018-04-18T09:40:31.804Z,50.52
2018-04-18T09:41:31.817Z,50.87
2018-04-18T09:42:31.780Z,50.9
2018-04-18T09:43:31.846Z,50.86
2018-04-18T09:44:31.845Z,49.89
2018-04-18T09:45:31.784Z,50.49
2018-04-18T09:46:31.843Z,49.49
2018-04-18T09:47:31.767Z,48.59
2018-04-18T09:48:31.783Z,47.93
2018-04-18T09:49:31.780Z,47.47
2018-04-18T09:50:31.772Z,48.58
2018-04-18T09:51:31.771Z,49.09
2018-04-18T09:52:31.780Z,50.04
2018-04-18T09:53:31.771Z,48.5
2018-04-18T09:54:31.775Z,46.5
2018-04-18T09:55:31.765Z,46.15
2018-04-18T09:56:31.797Z,46.4
2018-04-18T09:57:31.814Z,46.46
2018-04-18T09:58:32.022Z,47.35
2018-04-18T09:59:31.853Z,47.54
2018-04-18T10:00:31.788Z,47.79
2018-04-18T10:01:31.813Z,47.82
2018-04-18T10:02:31.783Z,46.59
2018-04-18T10:03:31.812Z,47.46
2018-04-18T10:04:31.820Z,47.72
2018-04-18T10:05:31.810Z,47.32
2018-04-18T10:06:31.800Z,46.63
2018-04-18T10:07:31.781Z,46.14
2018-04-18T10:08:31.783Z,45.66
2018-04-18T10:09:31.767Z,45.31
2018-04-18T10:10:32.113Z,45.81
2018-04-18T10:11:31.807Z,45.11
2018-04-18T10:12:31.767Z,46.07
2018-04-18T10:13:31.795Z,45.53
2018-04-18T10:14:31.776Z,44.98
2018-04-18T10:15:31.793Z,44.79
2018-04-18T10:16:31.776Z,45.67
2018-04-18T10:17:31.825Z,46.11
2018-04-18T10:18:31.771Z,44.34
2018-04-18T10:19:31.955Z,45.06
2018-04-18T10:20:31.824Z,44.45
2018-04-18T10:21:31.803Z,43.66
2018-04-18T10:22:31.780Z,44.04
2018-04-18T10:23:31.756Z,44.51
2018-04-18T10:24:31.767Z,44.52
2018-04-18T10:25:31.767Z,44.97
2018-04-18T10:26:31.799Z,44.52
2018-04-18T10:27:31.771Z,45.36
2018-04-18T10:28:31.814Z,46.38
2018-04-18T10:29:31.771Z,45.87
2018-04-18T10:30:31.767Z,44.89
2018-04-18T10:31:31.789Z,45.45
2018-04-18T10:32:31.771Z,44.18
2018-04-18T10:33:31.813Z,41.99
2018-04-18T10:34:31.750Z,41.92
2018-04-18T10:35:31.973Z,42.04
2018-04-18T10:36:31.799Z,40.62
2018-04-18T10:37:31.797Z,40.3
2018-04-18T10:38:31.877Z,41.17
2018-04-18T10:39:31.952Z,41.3
2018-04-18T10:40:31.762Z,41.12
2018-04-18T10:41:31.745Z,40.99
2018-04-18T10:42:31.775Z,41.25
2018-04-18T10:43:31.769Z,41.46
2018-04-18T10:44:31.779Z,39.6
2018-04-18T10:45:31.794Z,38.82
2018-04-18T10:46:31.742Z,40.08
2018-04-18T10:47:31.824Z,40.47
2018-04-18T10:48:31.770Z,39.34
2018-04-18T10:49:31.781Z,38.42
2018-04-18T10:50:31.773Z,38.37
2018-04-18T10:51:31.783Z,38.12
2018-04-18T10:52:31.779Z,37.5
2018-04-18T10:53:31.752Z,36.91
2018-04-18T10:54:31.870Z,36.77
2018-04-18T10:55:31.779Z,37.15
2018-04-18T10:56:31.779Z,38.19
2018-04-18T10:57:31.815Z,37.14
2018-04-18T10:58:32.012Z,37.46
2018-04-18T10:59:31.790Z,36.87
2018-04-18T11:00:31.745Z,36.33
2018-04-18T11:01:31.766Z,37.15
2018-04-18T11:02:31.810Z,34.62
2018-04-18T11:03:31.817Z,34.51
2018-04-18T11:04:31.730Z,34.27
2018-04-18T11:05:31.794Z,34.86
2018-04-18T11:06:31.743Z,35.32
2018-04-18T11:07:31.769Z,35.23
2018-04-18T11:08:31.761Z,35.96
2018-04-18T11:09:31.767Z,34.8
2018-04-18T11:10:31.755Z,35.72
2018-04-18T11:11:31.760Z,35.57
2018-04-18T11:12:31.740Z,35.34
2018-04-18T11:13:31.758Z,35.36
2018-04-18T11:14:31.753Z,35.27
2018-04-18T11:15:31.750Z,36.48
2018-04-18T11:16:31.766Z,36.45
2018-04-18T11:17:31.765Z,36.05
2018-04-18T11:18:31.734Z,35.77
2018-04-18T11:19:31.729Z,36.45
2018-04-18T11:20:31.914Z,35.68
2018-04-18T11:21:31.747Z,35.48
2018-04-18T11:22:31.773Z,35.3
2018-04-18T11:23:31.773Z,34.06
2018-04-18T11:24:31.738Z,35.37
2018-04-18T11:25:31.754Z,34.56
2018-04-18T11:26:31.851Z,34.21
2018-04-18T11:27:31.773Z,34.36
2018-04-18T11:28:32.012Z,34.48
2018-04-18T11:29:31.779Z,33.57
2018-04-18T11:30:31.732Z,34.49
2018-04-18T11:31:31.934Z,34.73
2018-04-18T11:32:31.820Z,35.51
2018-04-18T11:33:31.894Z,36.14
2018-04-18T11:34:31.752Z,35.74
2018-04-18T11:35:31.774Z,35.63
2018-04-18T11:36:31.725Z,36.24
2018-04-18T11:37:31.757Z,35.97
2018-04-18T11:38:31.758Z,36.34
2018-04-18T11:39:31.806Z,36.83
2018-04-18T11:40:31.766Z,37.2
2018-04-18T11:41:31.746Z,34.92
2018-04-18T11:42:31.799Z,35.17
2018-04-18T11:43:31.744Z,34.86
2018-04-18T11:44:31.780Z,34.99
2018-04-18T11:45:31.932Z,36.42
2018-04-18T11:46:31.727Z,36.45
2018-04-18T11:47:31.829Z,35.55
2018-04-18T11:48:31.738Z,35.95
2018-04-18T11:49:31.955Z,36.4
2018-04-18T11:50:31.794Z,37.31
2018-04-18T11:51:31.832Z,34.45
2018-04-18T11:52:31.780Z,34.38
2018-04-18T11:53:31.753Z,34.55
2018-04-18T11:54:31.767Z,34.06
2018-04-18T11:55:31.732Z,33.87
2018-04-18T11:56:31.735Z,33.12
2018-04-18T11:57:31.969Z,33.08
2018-04-18T11:58:31.756Z,31.9
2018-04-18T11:59:31.753Z,32.78
2018-04-18T12:00:31.773Z,33.89
2018-04-18T12:01:31.732Z,34.11
2018-04-18T12:02:31.800Z,33.95
2018-04-18T12:03:32.485Z,33.54
2018-04-18T12:04:31.789Z,33.98
2018-04-18T12:05:31.751Z,33.82
2018-04-18T12:06:31.752Z,32.61
2018-04-18T12:07:31.768Z,31.63
2018-04-18T12:08:31.765Z,29.11
2018-04-18T12:09:31.733Z,30.94
2018-04-18T12:10:31.792Z,31.06
2018-04-18T12:11:31.968Z,29.28
2018-04-18T12:12:31.775Z,29.72
2018-04-18T12:13:31.749Z,29.89
2018-04-18T12:14:31.717Z,31.1
2018-04-18T12:15:31.764Z,30.84
2018-04-18T12:16:31.775Z,31.78
2018-04-18T12:17:31.763Z,31.86
2018-04-18T12:18:31.891Z,32.52
2018-04-18T12:19:31.763Z,31.59
2018-04-18T12:20:31.729Z,31.65
2018-04-18T12:21:31.797Z,31.73
2018-04-18T12:22:31.872Z,31.85
2018-04-18T12:23:31.822Z,31.53
2018-04-18T12:24:31.821Z,32
2018-04-18T12:25:31.803Z,32.46
2018-04-18T12:26:31.817Z,31.56
2018-04-18T12:27:31.789Z,31.02
2018-04-18T12:28:31.847Z,30.34
2018-04-18T12:29:31.723Z,31.36
2018-04-18T12:30:31.863Z,30.37
2018-04-18T12:31:31.745Z,30.59
2018-04-18T12:32:31.732Z,31.26
2018-04-18T12:33:31.888Z,30.07
2018-04-18T12:34:31.935Z,30.4
2018-04-18T12:35:31.831Z,29.38
2018-04-18T12:36:31.788Z,30.42
2018-04-18T12:37:31.796Z,30.67
2018-04-18T12:38:31.796Z,31.09
2018-04-18T12:39:31.811Z,29.81
2018-04-18T12:40:31.814Z,30.64
2018-04-18T12:41:31.884Z,29.45
2018-04-18T12:42:31.739Z,29.73
2018-04-18T12:43:31.745Z,29.77
2018-04-18T12:44:31.712Z,29.3
2018-04-18T12:45:31.711Z,29.35
2018-04-18T12:46:31.762Z,29.43
2018-04-18T12:47:31.768Z,29.97
2018-04-18T12:48:31.775Z,30.66
2018-04-18T12:49:31.713Z,31.25
2018-04-18T12:50:31.788Z,31
2018-04-18T12:51:31.791Z,30.91
2018-04-18T12:52:31.740Z,30.82
2018-04-18T12:53:31.737Z,31.04
2018-04-18T12:54:31.844Z,30.49
2018-04-18T12:55:31.707Z,30.61
2018-04-18T12:56:31.818Z,31.49